sensor_id;sensor_type;location;lat;lon;timestamp;pressure;altitude;pressure_sealevel;temperature;humidity
55685;BME280;41883;49.544;8.646;2023-04-01T00:01:18;98993.03;;;9.82;nan
55685;BME280;41883;49.544;8.646;2023-04-01T00:03:44;98998.31;;;9.82;nan
55685;BME280;41883;49.544;8.646;2023-04-01T00:06:13;98994.00;;;9.81;nan
55685;BME280;41883;49.544;8.646;2023-04-01T00:08:39;98988.91;;;9.79;nan
55685;BME280;41883;49.544;8.646;2023-04-01T00:11:04;98993.38;;;9.79;nan
55685;BME280;41883;49.544;8.646;2023-04-01T00:13:30;98988.31;;;9.77;nan
55685;BME280;41883;49.544;8.646;2023-04-01T00:15:55;98987.13;;;9.80;nan
55685;BME280;41883;49.544;8.646;2023-04-01T00:18:21;98992.19;;;9.82;nan
55685;BME280;41883;49.544;8.646;2023-04-01T00:20:47;98982.66;;;9.81;nan
55685;BME280;41883;49.544;8.646;2023-04-01T00:23:13;98990.94;;;9.77;nan
55685;BME280;41883;49.544;8.646;2023-04-01T00:25:38;98991.13;;;9.76;nan
55685;BME280;41883;49.544;8.646;2023-04-01T00:28:03;98992.75;;;9.77;nan
55685;BME280;41883;49.544;8.646;2023-04-01T00:30:29;98983.19;;;9.76;nan
55685;BME280;41883;49.544;8.646;2023-04-01T00:32:54;98988.47;;;9.76;nan
55685;BME280;41883;49.544;8.646;2023-04-01T00:35:19;98983.38;;;9.74;nan
55685;BME280;41883;49.544;8.646;2023-04-01T00:37:44;98993.94;;;9.74;nan
55685;BME280;41883;49.544;8.646;2023-04-01T00:40:23;98991.50;;;9.73;nan
55685;BME280;41883;49.544;8.646;2023-04-01T00:42:49;98993.94;;;9.74;nan
55685;BME280;41883;49.544;8.646;2023-04-01T00:45:35;98989.66;;;9.73;nan
55685;BME280;41883;49.544;8.646;2023-04-01T00:48:22;98989.66;;;9.73;nan
55685;BME280;41883;49.544;8.646;2023-04-01T00:50:49;98989.28;;;9.76;nan
55685;BME280;41883;49.544;8.646;2023-04-01T00:53:16;98981.38;;;9.76;nan
55685;BME280;41883;49.544;8.646;2023-04-01T00:55:43;98988.47;;;9.76;nan
55685;BME280;41883;49.544;8.646;2023-04-01T00:58:13;98984.00;;;9.76;nan
55685;BME280;41883;49.544;8.646;2023-04-01T01:00:39;98977.09;;;9.75;nan
55685;BME280;41883;49.544;8.646;2023-04-01T01:03:05;98984.38;;;9.73;nan
55685;BME280;41883;49.544;8.646;2023-04-01T01:05:34;98981.47;;;9.68;nan
55685;BME280;41883;49.544;8.646;2023-04-01T01:08:11;98970.13;;;9.68;nan
55685;BME280;41883;49.544;8.646;2023-04-01T01:10:40;98986.94;;;9.67;nan
55685;BME280;41883;49.544;8.646;2023-04-01T01:15:46;98979.47;;;9.70;nan
55685;BME280;41883;49.544;8.646;2023-04-01T01:23:38;98987.19;;;9.72;nan
55685;BME280;41883;49.544;8.646;2023-04-01T01:26:13;98980.94;;;9.73;nan
55685;BME280;41883;49.544;8.646;2023-04-01T01:36:32;98957.19;;;9.73;nan
55685;BME280;41883;49.544;8.646;2023-04-01T01:39:01;98963.09;;;9.75;nan
55685;BME280;41883;49.544;8.646;2023-04-01T01:41:27;98957.81;;;9.75;nan
55685;BME280;41883;49.544;8.646;2023-04-01T01:43:54;98962.06;;;9.76;nan
55685;BME280;41883;49.544;8.646;2023-04-01T01:46:22;98952.16;;;9.78;nan
55685;BME280;41883;49.544;8.646;2023-04-01T01:48:49;98950.16;;;9.80;nan
55685;BME280;41883;49.544;8.646;2023-04-01T01:51:15;98947.69;;;9.78;nan
55685;BME280;41883;49.544;8.646;2023-04-01T01:53:40;98936.97;;;9.80;nan
55685;BME280;41883;49.544;8.646;2023-04-01T01:56:06;98948.16;;;9.82;nan
55685;BME280;41883;49.544;8.646;2023-04-01T01:58:32;98945.50;;;9.82;nan
55685;BME280;41883;49.544;8.646;2023-04-01T02:01:01;98945.50;;;9.82;nan
55685;BME280;41883;49.544;8.646;2023-04-01T02:03:28;98939.22;;;9.83;nan
55685;BME280;41883;49.544;8.646;2023-04-01T02:05:55;98944.50;;;9.83;nan
55685;BME280;41883;49.544;8.646;2023-04-01T02:08:28;98945.50;;;9.82;nan
55685;BME280;41883;49.544;8.646;2023-04-01T02:10:58;98940.22;;;9.82;nan
55685;BME280;41883;49.544;8.646;2023-04-01T02:13:27;98938.19;;;9.84;nan
55685;BME280;41883;49.544;8.646;2023-04-01T02:15:54;98939.84;;;9.85;nan
55685;BME280;41883;49.544;8.646;2023-04-01T02:18:21;98952.41;;;9.83;nan
55685;BME280;41883;49.544;8.646;2023-04-01T02:20:46;98948.97;;;9.83;nan
55685;BME280;41883;49.544;8.646;2023-04-01T02:23:12;98945.13;;;9.85;nan
55685;BME280;41883;49.544;8.646;2023-04-01T02:25:38;98945.31;;;9.84;nan
55685;BME280;41883;49.544;8.646;2023-04-01T02:28:05;98945.94;;;9.86;nan
55685;BME280;41883;49.544;8.646;2023-04-01T02:30:32;98951.84;;;9.88;nan
55685;BME280;41883;49.544;8.646;2023-04-01T02:32:58;98951.22;;;9.86;nan
55685;BME280;41883;49.544;8.646;2023-04-01T02:35:23;98937.22;;;9.85;nan
55685;BME280;41883;49.544;8.646;2023-04-01T02:37:50;98954.69;;;9.86;nan
55685;BME280;41883;49.544;8.646;2023-04-01T02:40:16;98947.78;;;9.85;nan
55685;BME280;41883;49.544;8.646;2023-04-01T02:42:42;98947.41;;;9.88;nan
55685;BME280;41883;49.544;8.646;2023-04-01T02:45:07;98938.84;;;9.86;nan
55685;BME280;41883;49.544;8.646;2023-04-01T02:47:32;98947.41;;;9.88;nan
55685;BME280;41883;49.544;8.646;2023-04-01T02:49:57;98951.06;;;9.87;nan
55685;BME280;41883;49.544;8.646;2023-04-01T02:52:26;98959.78;;;9.88;nan
55685;BME280;41883;49.544;8.646;2023-04-01T02:54:52;98956.59;;;9.92;nan
55685;BME280;41883;49.544;8.646;2023-04-01T02:57:17;98951.69;;;9.89;nan
55685;BME280;41883;49.544;8.646;2023-04-01T02:59:42;98947.84;;;9.92;nan
55685;BME280;41883;49.544;8.646;2023-04-01T03:02:08;98951.72;;;9.96;nan
55685;BME280;41883;49.544;8.646;2023-04-01T03:04:33;98952.13;;;9.93;nan
55685;BME280;41883;49.544;8.646;2023-04-01T03:06:58;98957.56;;;9.91;nan
55685;BME280;41883;49.544;8.646;2023-04-01T03:09:23;98953.31;;;9.90;nan
55685;BME280;41883;49.544;8.646;2023-04-01T03:11:49;98954.75;;;9.93;nan
55685;BME280;41883;49.544;8.646;2023-04-01T03:14:14;98953.13;;;9.92;nan
55685;BME280;41883;49.544;8.646;2023-04-01T03:16:39;98955.94;;;9.90;nan
55685;BME280;41883;49.544;8.646;2023-04-01T03:19:04;98954.13;;;9.91;nan
55685;BME280;41883;49.544;8.646;2023-04-01T03:21:29;98948.19;;;9.89;nan
55685;BME280;41883;49.544;8.646;2023-04-01T03:23:55;98950.41;;;9.85;nan
55685;BME280;41883;49.544;8.646;2023-04-01T03:26:20;98949.41;;;9.86;nan
55685;BME280;41883;49.544;8.646;2023-04-01T03:28:47;98958.16;;;9.87;nan
55685;BME280;41883;49.544;8.646;2023-04-01T03:31:12;98954.69;;;9.86;nan
55685;BME280;41883;49.544;8.646;2023-04-01T03:33:39;98961.78;;;9.86;nan
55685;BME280;41883;49.544;8.646;2023-04-01T03:36:04;98953.22;;;9.84;nan
55685;BME280;41883;49.544;8.646;2023-04-01T03:38:31;98953.59;;;9.81;nan
55685;BME280;41883;49.544;8.646;2023-04-01T03:40:56;98948.59;;;9.86;nan
55685;BME280;41883;49.544;8.646;2023-04-01T03:43:22;98960.50;;;9.82;nan
55685;BME280;41883;49.544;8.646;2023-04-01T03:45:48;98951.13;;;9.79;nan
55685;BME280;41883;49.544;8.646;2023-04-01T03:48:14;98954.59;;;9.79;nan
55685;BME280;41883;49.544;8.646;2023-04-01T03:50:39;98960.50;;;9.82;nan
55685;BME280;41883;49.544;8.646;2023-04-01T03:53:04;98953.59;;;9.81;nan
55685;BME280;41883;49.544;8.646;2023-04-01T03:55:29;98954.41;;;9.81;nan
55685;BME280;41883;49.544;8.646;2023-04-01T03:57:55;98953.44;;;9.82;nan
55685;BME280;41883;49.544;8.646;2023-04-01T04:00:20;98962.16;;;9.83;nan
55685;BME280;41883;49.544;8.646;2023-04-01T04:02:45;98964.00;;;9.82;nan
55685;BME280;41883;49.544;8.646;2023-04-01T04:05:10;98960.50;;;9.82;nan
55685;BME280;41883;49.544;8.646;2023-04-01T04:07:36;98959.31;;;9.84;nan
55685;BME280;41883;49.544;8.646;2023-04-01T04:10:01;98951.59;;;9.83;nan
55685;BME280;41883;49.544;8.646;2023-04-01T04:12:26;98953.06;;;9.85;nan
55685;BME280;41883;49.544;8.646;2023-04-01T04:14:52;98949.41;;;9.86;nan
55685;BME280;41883;49.544;8.646;2023-04-01T04:17:17;98950.41;;;9.85;nan
55685;BME280;41883;49.544;8.646;2023-04-01T04:19:42;98955.78;;;9.92;nan
55685;BME280;41883;49.544;8.646;2023-04-01T04:22:07;98953.31;;;9.90;nan
55685;BME280;41883;49.544;8.646;2023-04-01T04:24:33;98952.66;;;9.88;nan
55685;BME280;41883;49.544;8.646;2023-04-01T04:26:59;98941.72;;;9.91;nan
55685;BME280;41883;49.544;8.646;2023-04-01T04:29:24;98943.38;;;9.92;nan
55685;BME280;41883;49.544;8.646;2023-04-01T04:31:49;98949.09;;;9.96;nan
55685;BME280;41883;49.544;8.646;2023-04-01T04:34:14;98939.97;;;9.98;nan
55685;BME280;41883;49.544;8.646;2023-04-01T04:36:39;98943.00;;;9.95;nan
55685;BME280;41883;49.544;8.646;2023-04-01T04:39:05;98937.72;;;9.95;nan
55685;BME280;41883;49.544;8.646;2023-04-01T04:41:30;98946.44;;;9.96;nan
55685;BME280;41883;49.544;8.646;2023-04-01T04:43:55;98942.19;;;9.95;nan
55685;BME280;41883;49.544;8.646;2023-04-01T04:46:21;98937.94;;;9.94;nan
55685;BME280;41883;49.544;8.646;2023-04-01T04:48:47;98935.09;;;9.95;nan
55685;BME280;41883;49.544;8.646;2023-04-01T04:51:16;98931.81;;;9.93;nan
55685;BME280;41883;49.544;8.646;2023-04-01T04:53:41;98948.66;;;9.92;nan
55685;BME280;41883;49.544;8.646;2023-04-01T04:56:07;98942.75;;;9.90;nan
55685;BME280;41883;49.544;8.646;2023-04-01T04:58:32;98935.84;;;9.89;nan
55685;BME280;41883;49.544;8.646;2023-04-01T05:00:57;98944.56;;;9.90;nan
55685;BME280;41883;49.544;8.646;2023-04-01T05:03:22;98939.28;;;9.90;nan
55685;BME280;41883;49.544;8.646;2023-04-01T05:05:48;98939.47;;;9.88;nan
55685;BME280;41883;49.544;8.646;2023-04-01T05:08:15;98948.75;;;9.84;nan
55685;BME280;41883;49.544;8.646;2023-04-01T05:10:40;98936.13;;;9.79;nan
55685;BME280;41883;49.544;8.646;2023-04-01T05:13:05;98940.78;;;9.77;nan
55685;BME280;41883;49.544;8.646;2023-04-01T05:15:30;98951.25;;;9.71;nan
55685;BME280;41883;49.544;8.646;2023-04-01T05:17:55;98950.38;;;9.64;nan
55685;BME280;41883;49.544;8.646;2023-04-01T05:20:20;98948.09;;;9.61;nan
55685;BME280;41883;49.544;8.646;2023-04-01T05:22:46;98941.91;;;9.53;nan
55685;BME280;41883;49.544;8.646;2023-04-01T05:25:11;98949.63;;;9.55;nan
55685;BME280;41883;49.544;8.646;2023-04-01T05:27:36;98940.81;;;9.48;nan
55685;BME280;41883;49.544;8.646;2023-04-01T05:30:01;98947.09;;;9.47;nan
55685;BME280;41883;49.544;8.646;2023-04-01T05:32:27;98942.19;;;9.44;nan
55685;BME280;41883;49.544;8.646;2023-04-01T05:34:53;98939.75;;;9.42;nan
55685;BME280;41883;49.544;8.646;2023-04-01T05:37:18;98937.91;;;9.43;nan
55685;BME280;41883;49.544;8.646;2023-04-01T05:39:43;98940.94;;;9.40;nan
55685;BME280;41883;49.544;8.646;2023-04-01T05:42:08;98939.66;;;9.35;nan
55685;BME280;41883;49.544;8.646;2023-04-01T05:44:34;98933.28;;;9.30;nan
55685;BME280;41883;49.544;8.646;2023-04-01T05:47:00;98929.28;;;9.34;nan
55685;BME280;41883;49.544;8.646;2023-04-01T05:49:25;98925.00;;;9.33;nan
55685;BME280;41883;49.544;8.646;2023-04-01T05:51:50;98922.63;;;9.38;nan
55685;BME280;41883;49.544;8.646;2023-04-01T05:54:16;98928.56;;;9.40;nan
55685;BME280;41883;49.544;8.646;2023-04-01T05:56:41;98929.38;;;9.41;nan
55685;BME280;41883;49.544;8.646;2023-04-01T05:59:06;98926.19;;;9.45;nan
55685;BME280;41883;49.544;8.646;2023-04-01T06:01:32;98932.09;;;9.47;nan
55685;BME280;41883;49.544;8.646;2023-04-01T06:03:57;98927.63;;;9.48;nan
55685;BME280;41883;49.544;8.646;2023-04-01T06:06:28;98920.81;;;9.53;nan
55685;BME280;41883;49.544;8.646;2023-04-01T06:08:55;98929.34;;;9.55;nan
55685;BME280;41883;49.544;8.646;2023-04-01T06:13:56;98925.34;;;9.60;nan
55685;BME280;41883;49.544;8.646;2023-04-01T06:32:10;98926.50;;;9.72;nan
55685;BME280;41883;49.544;8.646;2023-04-01T06:34:50;98921.66;;;9.75;nan
55685;BME280;41883;49.544;8.646;2023-04-01T06:37:23;98926.13;;;9.75;nan
55685;BME280;41883;49.544;8.646;2023-04-01T06:47:31;98932.03;;;9.77;nan
55685;BME280;41883;49.544;8.646;2023-04-01T06:52:26;98935.50;;;9.77;nan
55685;BME280;41883;49.544;8.646;2023-04-01T06:55:02;98930.84;;;9.79;nan
55685;BME280;41883;49.544;8.646;2023-04-01T06:59:55;98929.59;;;9.75;nan
55685;BME280;41883;49.544;8.646;2023-04-01T07:02:34;98928.31;;;9.71;nan
55685;BME280;41883;49.544;8.646;2023-04-01T07:05:01;98933.97;;;9.68;nan
55685;BME280;41883;49.544;8.646;2023-04-01T07:09:52;98929.94;;;9.72;nan
55685;BME280;41883;49.544;8.646;2023-04-01T07:12:23;98927.03;;;9.82;nan
55685;BME280;41883;49.544;8.646;2023-04-01T07:14:52;98929.94;;;9.87;nan
55685;BME280;41883;49.544;8.646;2023-04-01T07:17:22;98926.91;;;9.90;nan
55685;BME280;41883;49.544;8.646;2023-04-01T07:19:50;98917.22;;;9.97;nan
55685;BME280;41883;49.544;8.646;2023-04-01T07:24:43;98937.00;;;10.02;nan
55685;BME280;41883;49.544;8.646;2023-04-01T07:27:10;98935.41;;;10.07;nan
55685;BME280;41883;49.544;8.646;2023-04-01T07:29:35;98937.41;;;10.05;nan
55685;BME280;41883;49.544;8.646;2023-04-01T07:32:26;98929.88;;;10.02;nan
55685;BME280;41883;49.544;8.646;2023-04-01T07:37:31;98940.88;;;10.06;nan
55685;BME280;41883;49.544;8.646;2023-04-01T07:45:24;98947.16;;;10.05;nan
55685;BME280;41883;49.544;8.646;2023-04-01T07:47:57;98944.91;;;10.02;nan
55685;BME280;41883;49.544;8.646;2023-04-01T07:53:00;98949.63;;;10.06;nan
55685;BME280;41883;49.544;8.646;2023-04-01T07:55:36;98943.50;;;10.06;nan
55685;BME280;41883;49.544;8.646;2023-04-01T07:58:20;98956.91;;;10.04;nan
55685;BME280;41883;49.544;8.646;2023-04-01T08:03:17;98951.00;;;10.02;nan
55685;BME280;41883;49.544;8.646;2023-04-01T08:05:55;98953.19;;;9.98;nan
55685;BME280;41883;49.544;8.646;2023-04-01T08:08:31;98945.09;;;10.00;nan
55685;BME280;41883;49.544;8.646;2023-04-01T08:18:52;98961.47;;;9.95;nan
55685;BME280;41883;49.544;8.646;2023-04-01T08:21:27;98957.22;;;9.94;nan
55685;BME280;41883;49.544;8.646;2023-04-01T08:23:54;98950.84;;;9.89;nan
55685;BME280;41883;49.544;8.646;2023-04-01T08:26:30;98968.44;;;9.82;nan
55685;BME280;41883;49.544;8.646;2023-04-01T08:29:11;98955.53;;;9.72;nan
55685;BME280;41883;49.544;8.646;2023-04-01T08:31:47;98966.53;;;9.75;nan
55685;BME280;41883;49.544;8.646;2023-04-01T08:34:15;98964.88;;;9.74;nan
55685;BME280;41883;49.544;8.646;2023-04-01T08:36:45;98966.75;;;9.59;nan
55685;BME280;41883;49.544;8.646;2023-04-01T08:39:16;98970.31;;;9.51;nan
55685;BME280;41883;49.544;8.646;2023-04-01T08:52:31;98971.09;;;9.22;nan
55685;BME280;41883;49.544;8.646;2023-04-01T09:05:02;98980.19;;;9.20;nan
55685;BME280;41883;49.544;8.646;2023-04-01T09:07:40;98977.56;;;9.20;nan
55685;BME280;41883;49.544;8.646;2023-04-01T09:12:43;98983.69;;;9.35;nan
55685;BME280;41883;49.544;8.646;2023-04-01T09:23:23;98987.94;;;9.36;nan
55685;BME280;41883;49.544;8.646;2023-04-01T09:28:20;98985.69;;;9.33;nan
55685;BME280;41883;49.544;8.646;2023-04-01T09:34:00;98989.94;;;9.34;nan
55685;BME280;41883;49.544;8.646;2023-04-01T09:39:10;98988.22;;;9.41;nan
55685;BME280;41883;49.544;8.646;2023-04-01T09:42:07;98994.34;;;9.42;nan
55685;BME280;41883;49.544;8.646;2023-04-01T09:44:35;98989.50;;;9.45;nan
55685;BME280;41883;49.544;8.646;2023-04-01T09:54:49;98989.38;;;9.83;nan
55685;BME280;41883;49.544;8.646;2023-04-01T10:08:08;99002.00;;;10.03;nan
55685;BME280;41883;49.544;8.646;2023-04-01T10:15:58;99013.66;;;9.93;nan
55685;BME280;41883;49.544;8.646;2023-04-01T10:37:23;99007.19;;;10.11;nan
55685;BME280;41883;49.544;8.646;2023-04-01T10:48:12;99006.63;;;10.00;nan
55685;BME280;41883;49.544;8.646;2023-04-01T11:00:39;99002.91;;;9.95;nan
55685;BME280;41883;49.544;8.646;2023-04-01T11:05:57;99010.13;;;9.86;nan
55685;BME280;41883;49.544;8.646;2023-04-01T11:21:34;99021.06;;;9.83;nan
55685;BME280;41883;49.544;8.646;2023-04-01T11:26:53;99010.13;;;9.86;nan
55685;BME280;41883;49.544;8.646;2023-04-01T11:29:30;99020.59;;;9.94;nan
55685;BME280;41883;49.544;8.646;2023-04-01T11:32:06;99024.84;;;9.95;nan
55685;BME280;41883;49.544;8.646;2023-04-01T11:42:26;99022.72;;;10.06;nan
55685;BME280;41883;49.544;8.646;2023-04-01T11:48:00;99025.75;;;10.03;nan
55685;BME280;41883;49.544;8.646;2023-04-01T11:53:05;99027.03;;;10.07;nan
55685;BME280;41883;49.544;8.646;2023-04-01T11:58:18;99030.06;;;10.04;nan
55685;BME280;41883;49.544;8.646;2023-04-01T12:00:58;99033.69;;;10.03;nan
55685;BME280;41883;49.544;8.646;2023-04-01T12:05:58;99045.59;;;9.98;nan
55685;BME280;41883;49.544;8.646;2023-04-01T12:08:30;99052.16;;;10.03;nan
55685;BME280;41883;49.544;8.646;2023-04-01T12:13:45;99046.88;;;10.03;nan
55685;BME280;41883;49.544;8.646;2023-04-01T12:16:21;99056.47;;;10.04;nan
55685;BME280;41883;49.544;8.646;2023-04-01T12:18:56;99044.44;;;10.01;nan
55685;BME280;41883;49.544;8.646;2023-04-01T12:21:37;99045.06;;;10.03;nan
55685;BME280;41883;49.544;8.646;2023-04-01T12:31:31;99053.34;;;10.00;nan
55685;BME280;41883;49.544;8.646;2023-04-01T12:36:50;99056.47;;;10.04;nan
55685;BME280;41883;49.544;8.646;2023-04-01T12:54:49;99062.81;;;10.09;nan
55685;BME280;41883;49.544;8.646;2023-04-01T13:08:05;99077.16;;;10.36;nan
55685;BME280;41883;49.544;8.646;2023-04-01T13:15:45;99075.88;;;10.47;nan
55685;BME280;41883;49.544;8.646;2023-04-01T13:26:36;99083.50;;;10.57;nan
55685;BME280;41883;49.544;8.646;2023-04-01T13:39:41;99091.69;;;10.62;nan
55685;BME280;41883;49.544;8.646;2023-04-01T13:42:13;99094.63;;;10.52;nan
55685;BME280;41883;49.544;8.646;2023-04-01T13:47:29;99103.69;;;10.43;nan
55685;BME280;41883;49.544;8.646;2023-04-01T13:53:01;99110.78;;;10.28;nan
55685;BME280;41883;49.544;8.646;2023-04-01T14:00:35;99115.56;;;10.32;nan
55685;BME280;41883;49.544;8.646;2023-04-01T14:03:20;99111.09;;;10.33;nan
55685;BME280;41883;49.544;8.646;2023-04-01T14:05:56;99107.25;;;10.35;nan
55685;BME280;41883;49.544;8.646;2023-04-01T14:16:27;99112.41;;;10.58;nan
55685;BME280;41883;49.544;8.646;2023-04-01T14:19:08;99115.94;;;10.66;nan
55685;BME280;41883;49.544;8.646;2023-04-01T14:21:55;99108.88;;;10.51;nan
55685;BME280;41883;49.544;8.646;2023-04-01T14:24:29;99116.34;;;10.48;nan
55685;BME280;41883;49.544;8.646;2023-04-01T14:29:37;99111.59;;;10.43;nan
55685;BME280;41883;49.544;8.646;2023-04-01T14:32:27;99130.22;;;10.35;nan
55685;BME280;41883;49.544;8.646;2023-04-01T14:40:47;99132.31;;;10.39;nan
55685;BME280;41883;49.544;8.646;2023-04-01T14:48:30;99136.59;;;10.40;nan
55685;BME280;41883;49.544;8.646;2023-04-01T14:50:57;99141.16;;;10.47;nan
55685;BME280;41883;49.544;8.646;2023-04-01T14:53:29;99149.97;;;10.54;nan
55685;BME280;41883;49.544;8.646;2023-04-01T14:56:00;99138.28;;;10.63;nan
55685;BME280;41883;49.544;8.646;2023-04-01T14:58:42;99146.66;;;10.67;nan
55685;BME280;41883;49.544;8.646;2023-04-01T15:03:53;99147.72;;;10.72;nan
55685;BME280;41883;49.544;8.646;2023-04-01T15:06:32;99154.09;;;10.78;nan
55685;BME280;41883;49.544;8.646;2023-04-01T15:14:27;99155.59;;;10.51;nan
55685;BME280;41883;49.544;8.646;2023-04-01T15:17:02;99161.72;;;10.36;nan
55685;BME280;41883;49.544;8.646;2023-04-01T15:24:24;99168.72;;;10.14;nan
55685;BME280;41883;49.544;8.646;2023-04-01T15:34:42;99173.28;;;10.06;nan
55685;BME280;41883;49.544;8.646;2023-04-01T15:39:45;99174.72;;;9.93;nan
55685;BME280;41883;49.544;8.646;2023-04-01T15:49:46;99192.81;;;9.82;nan
55685;BME280;41883;49.544;8.646;2023-04-01T15:52:18;99191.72;;;9.76;nan
55685;BME280;41883;49.544;8.646;2023-04-01T16:00:02;99198.09;;;9.67;nan
55685;BME280;41883;49.544;8.646;2023-04-01T16:05:34;99199.78;;;9.60;nan
55685;BME280;41883;49.544;8.646;2023-04-01T16:16:00;99216.53;;;9.52;nan
55685;BME280;41883;49.544;8.646;2023-04-01T16:18:52;99218.34;;;9.51;nan
55685;BME280;41883;49.544;8.646;2023-04-01T16:21:27;99222.97;;;9.49;nan
55685;BME280;41883;49.544;8.646;2023-04-01T16:26:57;99220.69;;;9.46;nan
55685;BME280;41883;49.544;8.646;2023-04-01T16:34:36;99237.34;;;9.47;nan
55685;BME280;41883;49.544;8.646;2023-04-01T16:37:07;99230.88;;;9.49;nan
55685;BME280;41883;49.544;8.646;2023-04-01T16:42:25;99235.94;;;9.59;nan
55685;BME280;41883;49.544;8.646;2023-04-01T16:45:15;99237.09;;;9.56;nan
55685;BME280;41883;49.544;8.646;2023-04-01T16:47:46;99250.28;;;9.56;nan
55685;BME280;41883;49.544;8.646;2023-04-01T16:50:23;99247.66;;;9.56;nan
55685;BME280;41883;49.544;8.646;2023-04-01T16:53:08;99249.47;;;9.56;nan
55685;BME280;41883;49.544;8.646;2023-04-01T16:58:56;99248.75;;;9.62;nan
55685;BME280;41883;49.544;8.646;2023-04-01T17:01:17;99251.53;;;9.69;nan
55685;BME280;41883;49.544;8.646;2023-04-01T17:03:46;99254.59;;;9.72;nan
55685;BME280;41883;49.544;8.646;2023-04-01T17:06:31;99254.59;;;9.72;nan
55685;BME280;41883;49.544;8.646;2023-04-01T17:14:14;99266.06;;;9.88;nan
55685;BME280;41883;49.544;8.646;2023-04-01T17:19:32;99263.53;;;9.94;nan
55685;BME280;41883;49.544;8.646;2023-04-01T17:22:10;99269.44;;;9.96;nan
55685;BME280;41883;49.544;8.646;2023-04-01T17:27:12;99267.63;;;9.97;nan
55685;BME280;41883;49.544;8.646;2023-04-01T17:32:21;99276.00;;;10.00;nan
55685;BME280;41883;49.544;8.646;2023-04-01T17:34:54;99278.47;;;10.02;nan
55685;BME280;41883;49.544;8.646;2023-04-01T17:40:22;99292.47;;;10.03;nan
55685;BME280;41883;49.544;8.646;2023-04-01T17:45:24;99299.13;;;9.98;nan
55685;BME280;41883;49.544;8.646;2023-04-01T17:53:28;99306.22;;;9.98;nan
55685;BME280;41883;49.544;8.646;2023-04-01T17:56:05;99309.94;;;9.89;nan
55685;BME280;41883;49.544;8.646;2023-04-01T18:03:54;99315.97;;;9.51;nan
55685;BME280;41883;49.544;8.646;2023-04-01T18:06:21;99324.75;;;9.44;nan
55685;BME280;41883;49.544;8.646;2023-04-01T18:09:02;99331.56;;;9.38;nan
55685;BME280;41883;49.544;8.646;2023-04-01T18:16:58;99338.16;;;9.34;nan
55685;BME280;41883;49.544;8.646;2023-04-01T18:22:02;99348.72;;;9.34;nan
55685;BME280;41883;49.544;8.646;2023-04-01T18:27:15;99352.53;;;9.31;nan
55685;BME280;41883;49.544;8.646;2023-04-01T18:29:44;99361.59;;;9.29;nan
55685;BME280;41883;49.544;8.646;2023-04-01T18:32:15;99367.69;;;9.29;nan
55685;BME280;41883;49.544;8.646;2023-04-01T18:39:45;99374.03;;;9.20;nan
55685;BME280;41883;49.544;8.646;2023-04-01T18:42:16;99383.56;;;9.21;nan
55685;BME280;41883;49.544;8.646;2023-04-01T18:44:49;99381.28;;;9.18;nan
55685;BME280;41883;49.544;8.646;2023-04-01T18:54:45;99399.59;;;9.11;nan
55685;BME280;41883;49.544;8.646;2023-04-01T18:57:17;99397.31;;;9.08;nan
55685;BME280;41883;49.544;8.646;2023-04-01T18:59:48;99392.03;;;9.08;nan
55685;BME280;41883;49.544;8.646;2023-04-01T19:02:33;99408.66;;;9.09;nan
55685;BME280;41883;49.544;8.646;2023-04-01T19:09:51;99423.69;;;9.08;nan
55685;BME280;41883;49.544;8.646;2023-04-01T19:12:25;99430.75;;;9.08;nan
55685;BME280;41883;49.544;8.646;2023-04-01T19:15:09;99424.00;;;9.05;nan
55685;BME280;41883;49.544;8.646;2023-04-01T19:20:26;99434.53;;;9.05;nan
55685;BME280;41883;49.544;8.646;2023-04-01T19:23:00;99430.28;;;9.04;nan
55685;BME280;41883;49.544;8.646;2023-04-01T19:25:42;99434.88;;;9.02;nan
55685;BME280;41883;49.544;8.646;2023-04-01T19:28:25;99440.97;;;9.03;nan
55685;BME280;41883;49.544;8.646;2023-04-01T19:30:57;99436.50;;;9.03;nan
55685;BME280;41883;49.544;8.646;2023-04-01T19:36:03;99437.88;;;8.99;nan
55685;BME280;41883;49.544;8.646;2023-04-01T19:43:59;99444.63;;;8.93;nan
55685;BME280;41883;49.544;8.646;2023-04-01T19:46:33;99443.63;;;8.95;nan
55685;BME280;41883;49.544;8.646;2023-04-01T19:51:50;99444.00;;;8.91;nan
55685;BME280;41883;49.544;8.646;2023-04-01T19:56:47;99454.84;;;8.88;nan
55685;BME280;41883;49.544;8.646;2023-04-01T20:04:40;99458.31;;;8.81;nan
55685;BME280;41883;49.544;8.646;2023-04-01T20:07:09;99462.59;;;8.82;nan
55685;BME280;41883;49.544;8.646;2023-04-01T20:14:53;99468.88;;;8.81;nan
55685;BME280;41883;49.544;8.646;2023-04-01T20:17:27;99470.03;;;8.78;nan
55685;BME280;41883;49.544;8.646;2023-04-01T20:19:58;99480.41;;;8.80;nan
55685;BME280;41883;49.544;8.646;2023-04-01T20:27:55;99490.47;;;8.84;nan
55685;BME280;41883;49.544;8.646;2023-04-01T20:30:25;99487.63;;;8.86;nan
55685;BME280;41883;49.544;8.646;2023-04-01T20:32:59;99494.56;;;8.87;nan
55685;BME280;41883;49.544;8.646;2023-04-01T20:35:44;99495.19;;;8.89;nan
55685;BME280;41883;49.544;8.646;2023-04-01T20:40:47;99500.50;;;8.97;nan
55685;BME280;41883;49.544;8.646;2023-04-01T20:43:16;99497.84;;;8.97;nan
55685;BME280;41883;49.544;8.646;2023-04-01T20:51:06;99504.94;;;8.97;nan
55685;BME280;41883;49.544;8.646;2023-04-01T20:53:50;99506.41;;;8.99;nan
55685;BME280;41883;49.544;8.646;2023-04-01T21:01:20;99517.13;;;8.98;nan
55685;BME280;41883;49.544;8.646;2023-04-01T21:03:55;99524.88;;;8.99;nan
55685;BME280;41883;49.544;8.646;2023-04-01T21:06:32;99522.25;;;8.99;nan
55685;BME280;41883;49.544;8.646;2023-04-01T21:09:10;99525.03;;;8.98;nan
55685;BME280;41883;49.544;8.646;2023-04-01T21:11:47;99525.03;;;8.98;nan
55685;BME280;41883;49.544;8.646;2023-04-01T21:19:51;99534.41;;;9.00;nan
55685;BME280;41883;49.544;8.646;2023-04-01T21:24:54;99539.69;;;9.00;nan
55685;BME280;41883;49.544;8.646;2023-04-01T21:30:51;99541.19;;;8.95;nan
55685;BME280;41883;49.544;8.646;2023-04-01T22:00:27;99579.88;;;8.69;nan
55685;BME280;41883;49.544;8.646;2023-04-01T22:08:12;99580.56;;;8.63;nan
55685;BME280;41883;49.544;8.646;2023-04-01T22:11:03;99588.47;;;8.63;nan
55685;BME280;41883;49.544;8.646;2023-04-01T22:16:01;99590.91;;;8.65;nan
55685;BME280;41883;49.544;8.646;2023-04-01T22:24:06;99588.47;;;8.63;nan
55685;BME280;41883;49.544;8.646;2023-04-01T22:26:40;99583.84;;;8.65;nan
55685;BME280;41883;49.544;8.646;2023-04-01T22:29:31;99592.72;;;8.64;nan